sensor_id;sensor_type;location;lat;lon;timestamp;pressure;altitude;pressure_sealevel;temperature;humidity
47726;BME280;33483;48.294;16.388;2023-08-21T00:01:35;100069.75;;;21.64;100.00
47726;BME280;33483;48.294;16.388;2023-08-21T00:04:03;100062.78;;;21.56;100.00
47726;BME280;33483;48.294;16.388;2023-08-21T00:06:35;100068.84;;;21.52;100.00
47726;BME280;33483;48.294;16.388;2023-08-21T00:09:03;100082.50;;;21.46;100.00
47726;BME280;33483;48.294;16.388;2023-08-21T00:11:30;100071.81;;;21.45;100.00
47726;BME280;33483;48.294;16.388;2023-08-21T00:13:58;100075.81;;;21.42;100.00
47726;BME280;33483;48.294;16.388;2023-08-21T00:16:25;100071.78;;;21.35;100.00
47726;BME280;33483;48.294;16.388;2023-08-21T00:18:54;100071.47;;;21.31;100.00
47726;BME280;33483;48.294;16.388;2023-08-21T00:21:21;100067.03;;;21.28;100.00
47726;BME280;33483;48.294;16.388;2023-08-21T00:23:51;100062.25;;;21.21;100.00
47726;BME280;33483;48.294;16.388;2023-08-21T00:26:18;100060.19;;;21.21;100.00
47726;BME280;33483;48.294;16.388;2023-08-21T00:28:46;100052.16;;;21.18;100.00
47726;BME280;33483;48.294;16.388;2023-08-21T00:31:13;100058.41;;;21.16;100.00
47726;BME280;33483;48.294;16.388;2023-08-21T00:33:43;100056.03;;;21.13;100.00
47726;BME280;33483;48.294;16.388;2023-08-21T00:36:10;100062.66;;;21.08;100.00
47726;BME280;33483;48.294;16.388;2023-08-21T00:38:38;100062.97;;;21.02;100.00
47726;BME280;33483;48.294;16.388;2023-08-21T00:41:06;100061.28;;;20.99;100.00
47726;BME280;33483;48.294;16.388;2023-08-21T00:43:36;100053.84;;;20.94;100.00
47726;BME280;33483;48.294;16.388;2023-08-21T00:46:03;100056.31;;;20.90;100.00
47726;BME280;33483;48.294;16.388;2023-08-21T00:48:31;100055.59;;;20.90;100.00
47726;BME280;33483;48.294;16.388;2023-08-21T00:51:01;100058.84;;;20.86;100.00
47726;BME280;33483;48.294;16.388;2023-08-21T00:53:30;100056.47;;;20.83;100.00
47726;BME280;33483;48.294;16.388;2023-08-21T00:56:00;100064.78;;;20.90;100.00
47726;BME280;33483;48.294;16.388;2023-08-21T00:58:27;100057.94;;;20.84;100.00
47726;BME280;33483;48.294;16.388;2023-08-21T01:00:54;100068.75;;;20.78;100.00
47726;BME280;33483;48.294;16.388;2023-08-21T01:03:22;100060.91;;;20.76;100.00
47726;BME280;33483;48.294;16.388;2023-08-21T01:05:49;100062.25;;;20.85;100.00
47726;BME280;33483;48.294;16.388;2023-08-21T01:08:19;100066.81;;;20.80;100.00
47726;BME280;33483;48.294;16.388;2023-08-21T01:13:24;100067.84;;;20.75;100.00
47726;BME280;33483;48.294;16.388;2023-08-21T01:16:09;100060.91;;;20.76;100.00
47726;BME280;33483;48.294;16.388;2023-08-21T01:18:38;100065.13;;;20.68;100.00
47726;BME280;33483;48.294;16.388;2023-08-21T01:21:06;100068.38;;;20.64;100.00
47726;BME280;33483;48.294;16.388;2023-08-21T01:23:35;100068.97;;;20.63;100.00
47726;BME280;33483;48.294;16.388;2023-08-21T01:26:03;100065.13;;;20.68;100.00
47726;BME280;33483;48.294;16.388;2023-08-21T01:28:31;100057.91;;;20.74;100.00
47726;BME280;33483;48.294;16.388;2023-08-21T01:31:02;100062.53;;;20.79;100.00
47726;BME280;33483;48.294;16.388;2023-08-21T01:33:33;100057.78;;;20.82;100.00
47726;BME280;33483;48.294;16.388;2023-08-21T01:36:02;100060.59;;;20.82;100.00
47726;BME280;33483;48.294;16.388;2023-08-21T01:38:32;100051.84;;;20.78;100.00
47726;BME280;33483;48.294;16.388;2023-08-21T01:40:59;100051.69;;;20.76;100.00
47726;BME280;33483;48.294;16.388;2023-08-21T01:43:29;100060.13;;;20.76;100.00
47726;BME280;33483;48.294;16.388;2023-08-21T01:45:57;100050.06;;;20.73;100.00
47726;BME280;33483;48.294;16.388;2023-08-21T01:48:24;100055.69;;;20.73;100.00
47726;BME280;33483;48.294;16.388;2023-08-21T01:50:54;100048.56;;;20.72;100.00
47726;BME280;33483;48.294;16.388;2023-08-21T01:53:24;100045.41;;;20.68;100.00
47726;BME280;33483;48.294;16.388;2023-08-21T01:55:54;100042.28;;;20.64;100.00
47726;BME280;33483;48.294;16.388;2023-08-21T01:58:21;100045.97;;;20.57;100.00
47726;BME280;33483;48.294;16.388;2023-08-21T02:00:49;100042.66;;;20.51;100.00
47726;BME280;33483;48.294;16.388;2023-08-21T02:03:19;100045.19;;;20.47;100.00
47726;BME280;33483;48.294;16.388;2023-08-21T02:05:46;100036.72;;;20.47;100.00
47726;BME280;33483;48.294;16.388;2023-08-21T02:08:14;100043.94;;;20.40;100.00
47726;BME280;33483;48.294;16.388;2023-08-21T02:10:50;100048.50;;;20.36;100.00
47726;BME280;33483;48.294;16.388;2023-08-21T02:13:18;100047.94;;;20.37;100.00
47726;BME280;33483;48.294;16.388;2023-08-21T02:15:46;100053.13;;;20.41;100.00
47726;BME280;33483;48.294;16.388;2023-08-21T02:18:13;100042.78;;;20.43;100.00
47726;BME280;33483;48.294;16.388;2023-08-21T02:20:40;100053.47;;;20.45;100.00
47726;BME280;33483;48.294;16.388;2023-08-21T02:23:09;100046.16;;;20.42;100.00
47726;BME280;33483;48.294;16.388;2023-08-21T02:25:36;100051.06;;;20.41;100.00
47726;BME280;33483;48.294;16.388;2023-08-21T02:28:04;100050.00;;;20.37;100.00
47726;BME280;33483;48.294;16.388;2023-08-21T02:30:31;100055.88;;;20.31;100.00
47726;BME280;33483;48.294;16.388;2023-08-21T02:32:59;100058.56;;;20.29;100.00
47726;BME280;33483;48.294;16.388;2023-08-21T02:35:26;100051.13;;;20.24;100.00
47726;BME280;33483;48.294;16.388;2023-08-21T02:37:53;100057.00;;;20.19;100.00
47726;BME280;33483;48.294;16.388;2023-08-21T02:40:21;100057.97;;;20.13;100.00
47726;BME280;33483;48.294;16.388;2023-08-21T02:42:48;100060.78;;;20.13;100.00
47726;BME280;33483;48.294;16.388;2023-08-21T02:45:15;100056.09;;;20.16;100.00
47726;BME280;33483;48.294;16.388;2023-08-21T02:47:43;100052.69;;;20.17;100.00
47726;BME280;33483;48.294;16.388;2023-08-21T02:50:14;100052.84;;;20.20;100.00
47726;BME280;33483;48.294;16.388;2023-08-21T02:52:50;100058.66;;;20.22;100.00
47726;BME280;33483;48.294;16.388;2023-08-21T02:55:18;100062.94;;;20.23;100.00
47726;BME280;33483;48.294;16.388;2023-08-21T02:57:47;100058.66;;;20.22;100.00
47726;BME280;33483;48.294;16.388;2023-08-21T03:00:14;100061.88;;;20.18;100.00
47726;BME280;33483;48.294;16.388;2023-08-21T03:02:43;100056.47;;;20.12;100.00
47726;BME280;33483;48.294;16.388;2023-08-21T03:05:11;100055.72;;;20.12;100.00
47726;BME280;33483;48.294;16.388;2023-08-21T03:07:39;100056.31;;;20.10;100.00
47726;BME280;33483;48.294;16.388;2023-08-21T03:10:06;100056.47;;;20.12;100.00
47726;BME280;33483;48.294;16.388;2023-08-21T03:12:34;100059.47;;;20.14;100.00
47726;BME280;33483;48.294;16.388;2023-08-21T03:15:03;100057.22;;;20.13;100.00
47726;BME280;33483;48.294;16.388;2023-08-21T03:17:31;100051.22;;;20.17;100.00
47726;BME280;33483;48.294;16.388;2023-08-21T03:19:58;100058.97;;;20.26;100.00
47726;BME280;33483;48.294;16.388;2023-08-21T03:22:26;100053.66;;;20.30;100.00
47726;BME280;33483;48.294;16.388;2023-08-21T03:24:53;100056.78;;;20.34;100.00
47726;BME280;33483;48.294;16.388;2023-08-21T03:27:21;100047.19;;;20.37;100.00
47726;BME280;33483;48.294;16.388;2023-08-21T03:29:49;100051.66;;;20.40;100.00
47726;BME280;33483;48.294;16.388;2023-08-21T03:32:16;100057.28;;;20.40;100.00
47726;BME280;33483;48.294;16.388;2023-08-21T03:34:47;100057.28;;;20.40;100.00
47726;BME280;33483;48.294;16.388;2023-08-21T03:37:14;100057.00;;;20.45;100.00
47726;BME280;33483;48.294;16.388;2023-08-21T03:39:43;100052.28;;;20.48;100.00
47726;BME280;33483;48.294;16.388;2023-08-21T03:42:13;100061.78;;;20.52;100.00
47726;BME280;33483;48.294;16.388;2023-08-21T03:44:40;100053.94;;;20.51;100.00
47726;BME280;33483;48.294;16.388;2023-08-21T03:47:07;100057.22;;;20.57;100.00
47726;BME280;33483;48.294;16.388;2023-08-21T03:49:43;100058.00;;;20.67;100.00
47726;BME280;33483;48.294;16.388;2023-08-21T03:52:13;100058.50;;;20.73;100.00
47726;BME280;33483;48.294;16.388;2023-08-21T03:54:41;100058.38;;;20.80;100.00
47726;BME280;33483;48.294;16.388;2023-08-21T03:57:12;100056.91;;;20.89;100.00
47726;BME280;33483;48.294;16.388;2023-08-21T03:59:39;100058.28;;;20.97;100.00
47726;BME280;33483;48.294;16.388;2023-08-21T04:02:06;100066.50;;;21.03;100.00
47726;BME280;33483;48.294;16.388;2023-08-21T04:04:35;100061.50;;;21.11;100.00
47726;BME280;33483;48.294;16.388;2023-08-21T04:07:02;100068.66;;;21.21;100.00
47726;BME280;33483;48.294;16.388;2023-08-21T04:09:30;100069.53;;;21.24;100.00
47726;BME280;33483;48.294;16.388;2023-08-21T04:11:58;100064.97;;;21.29;100.00
47726;BME280;33483;48.294;16.388;2023-08-21T04:14:25;100060.34;;;21.33;100.00
47726;BME280;33483;48.294;16.388;2023-08-21T04:16:53;100070.44;;;21.36;100.00
47726;BME280;33483;48.294;16.388;2023-08-21T04:19:20;100066.16;;;21.45;100.00
47726;BME280;33483;48.294;16.388;2023-08-21T04:21:47;100060.09;;;21.67;100.00
47726;BME280;33483;48.294;16.388;2023-08-21T04:24:14;100071.75;;;22.00;100.00
47726;BME280;33483;48.294;16.388;2023-08-21T04:26:44;100072.34;;;21.98;100.00
47726;BME280;33483;48.294;16.388;2023-08-21T04:29:11;100063.13;;;21.88;100.00
47726;BME280;33483;48.294;16.388;2023-08-21T04:31:39;100062.38;;;21.97;100.00
47726;BME280;33483;48.294;16.388;2023-08-21T04:34:06;100065.81;;;22.05;100.00
47726;BME280;33483;48.294;16.388;2023-08-21T04:36:34;100070.53;;;22.03;100.00
47726;BME280;33483;48.294;16.388;2023-08-21T04:39:01;100071.16;;;22.01;100.00
47726;BME280;33483;48.294;16.388;2023-08-21T04:41:31;100075.59;;;22.04;100.00
47726;BME280;33483;48.294;16.388;2023-08-21T04:43:59;100079.16;;;22.05;100.00
47726;BME280;33483;48.294;16.388;2023-08-21T04:46:27;100086.00;;;22.02;100.00
47726;BME280;33483;48.294;16.388;2023-08-21T04:48:55;100088.38;;;22.05;100.00
47726;BME280;33483;48.294;16.388;2023-08-21T04:51:22;100085.69;;;22.07;100.00
47726;BME280;33483;48.294;16.388;2023-08-21T04:53:50;100089.41;;;22.10;100.00
47726;BME280;33483;48.294;16.388;2023-08-21T04:56:20;100096.41;;;22.18;100.00
47726;BME280;33483;48.294;16.388;2023-08-21T04:58:47;100099.22;;;22.18;100.00
47726;BME280;33483;48.294;16.388;2023-08-21T05:01:17;100098.47;;;22.27;100.00
47726;BME280;33483;48.294;16.388;2023-08-21T05:03:47;100104.53;;;22.33;100.00
47726;BME280;33483;48.294;16.388;2023-08-21T05:06:15;100105.88;;;22.42;100.00
47726;BME280;33483;48.294;16.388;2023-08-21T05:08:44;100101.09;;;22.64;100.00
47726;BME280;33483;48.294;16.388;2023-08-21T05:11:12;100101.22;;;22.75;100.00
47726;BME280;33483;48.294;16.388;2023-08-21T05:13:42;100106.69;;;22.92;100.00
47726;BME280;33483;48.294;16.388;2023-08-21T05:16:12;100105.72;;;23.09;100.00
47726;BME280;33483;48.294;16.388;2023-08-21T05:18:41;100113.69;;;23.22;100.00
47726;BME280;33483;48.294;16.388;2023-08-21T05:21:09;100116.69;;;23.55;100.00
47726;BME280;33483;48.294;16.388;2023-08-21T05:23:36;100116.81;;;23.78;100.00
47726;BME280;33483;48.294;16.388;2023-08-21T05:26:06;100121.47;;;24.15;100.00
47726;BME280;33483;48.294;16.388;2023-08-21T05:28:34;100117.00;;;24.33;100.00
47726;BME280;33483;48.294;16.388;2023-08-21T05:31:03;100122.22;;;24.48;100.00
47726;BME280;33483;48.294;16.388;2023-08-21T05:33:44;100122.78;;;24.68;100.00
47726;BME280;33483;48.294;16.388;2023-08-21T05:36:16;100124.09;;;25.00;100.00
47726;BME280;33483;48.294;16.388;2023-08-21T05:38:43;100133.44;;;25.02;100.00
47726;BME280;33483;48.294;16.388;2023-08-21T05:41:11;100133.09;;;25.08;100.00
47726;BME280;33483;48.294;16.388;2023-08-21T05:43:38;100144.69;;;25.12;100.00
47726;BME280;33483;48.294;16.388;2023-08-21T05:46:06;100142.34;;;25.20;100.00
47726;BME280;33483;48.294;16.388;2023-08-21T05:48:33;100138.66;;;25.29;100.00
47726;BME280;33483;48.294;16.388;2023-08-21T05:51:03;100140.88;;;25.19;100.00
47726;BME280;33483;48.294;16.388;2023-08-21T05:53:32;100139.75;;;25.24;100.00
47726;BME280;33483;48.294;16.388;2023-08-21T05:56:02;100147.91;;;25.29;100.00
47726;BME280;33483;48.294;16.388;2023-08-21T05:58:29;100139.00;;;25.23;100.00
47726;BME280;33483;48.294;16.388;2023-08-21T06:00:58;100139.00;;;25.23;100.00
47726;BME280;33483;48.294;16.388;2023-08-21T06:03:26;100138.03;;;25.19;100.00
47726;BME280;33483;48.294;16.388;2023-08-21T06:06:17;100141.59;;;25.08;100.00
47726;BME280;33483;48.294;16.388;2023-08-21T06:08:46;100127.53;;;25.21;100.00
47726;BME280;33483;48.294;16.388;2023-08-21T06:11:14;100132.63;;;25.34;100.00
47726;BME280;33483;48.294;16.388;2023-08-21T06:13:42;100137.19;;;25.28;100.00
47726;BME280;33483;48.294;16.388;2023-08-21T06:16:13;100142.88;;;25.39;100.00
47726;BME280;33483;48.294;16.388;2023-08-21T06:18:45;100138.03;;;25.42;100.00
47726;BME280;33483;48.294;16.388;2023-08-21T06:21:13;100142.00;;;25.37;100.00
47726;BME280;33483;48.294;16.388;2023-08-21T06:23:40;100143.09;;;25.32;100.00
47726;BME280;33483;48.294;16.388;2023-08-21T06:26:08;100146.97;;;25.36;100.00
47726;BME280;33483;48.294;16.388;2023-08-21T06:28:35;100143.63;;;25.40;100.00
47726;BME280;33483;48.294;16.388;2023-08-21T06:31:03;100144.34;;;25.40;100.00
47726;BME280;33483;48.294;16.388;2023-08-21T06:33:37;100145.19;;;25.54;100.00
47726;BME280;33483;48.294;16.388;2023-08-21T06:36:04;100139.41;;;25.64;100.00
47726;BME280;33483;48.294;16.388;2023-08-21T06:38:32;100151.00;;;25.68;100.00
47726;BME280;33483;48.294;16.388;2023-08-21T06:41:03;100149.38;;;25.77;100.00
47726;BME280;33483;48.294;16.388;2023-08-21T06:43:37;100148.13;;;26.90;100.00
47726;BME280;33483;48.294;16.388;2023-08-21T06:46:07;100150.63;;;28.46;100.00
47726;BME280;33483;48.294;16.388;2023-08-21T06:48:36;100166.69;;;29.76;80.09
47726;BME280;33483;48.294;16.388;2023-08-21T06:51:03;100169.28;;;30.03;74.83
47726;BME280;33483;48.294;16.388;2023-08-21T06:53:30;100168.81;;;30.09;72.42
47726;BME280;33483;48.294;16.388;2023-08-21T06:56:01;100172.44;;;30.97;70.34
47726;BME280;33483;48.294;16.388;2023-08-21T06:58:28;100175.47;;;31.77;65.57
47726;BME280;33483;48.294;16.388;2023-08-21T07:00:59;100184.19;;;33.33;56.40
47726;BME280;33483;48.294;16.388;2023-08-21T07:03:27;100186.19;;;34.58;49.98
47726;BME280;33483;48.294;16.388;2023-08-21T07:05:59;100176.78;;;34.87;48.22
47726;BME280;33483;48.294;16.388;2023-08-21T07:08:27;100183.00;;;35.05;46.36
47726;BME280;33483;48.294;16.388;2023-08-21T07:10:54;100169.78;;;35.28;44.84
47726;BME280;33483;48.294;16.388;2023-08-21T07:13:22;100171.31;;;36.04;43.33
47726;BME280;33483;48.294;16.388;2023-08-21T07:15:52;100183.91;;;36.21;43.24
47726;BME280;33483;48.294;16.388;2023-08-21T07:18:20;100181.09;;;36.27;41.52
47726;BME280;33483;48.294;16.388;2023-08-21T07:20:51;100187.66;;;36.30;42.09
47726;BME280;33483;48.294;16.388;2023-08-21T07:23:22;100186.56;;;36.96;41.25
47726;BME280;33483;48.294;16.388;2023-08-21T07:25:49;100187.13;;;37.37;40.06
47726;BME280;33483;48.294;16.388;2023-08-21T07:28:19;100189.53;;;37.00;40.33
47726;BME280;33483;48.294;16.388;2023-08-21T07:30:47;100186.44;;;37.38;40.45
47726;BME280;33483;48.294;16.388;2023-08-21T07:33:14;100191.81;;;37.08;39.79
47726;BME280;33483;48.294;16.388;2023-08-21T07:35:41;100191.88;;;37.68;39.18
47726;BME280;33483;48.294;16.388;2023-08-21T07:38:09;100187.53;;;37.69;39.65
47726;BME280;33483;48.294;16.388;2023-08-21T07:40:36;100185.84;;;37.50;38.62
47726;BME280;33483;48.294;16.388;2023-08-21T07:43:03;100186.06;;;37.66;38.91
47726;BME280;33483;48.294;16.388;2023-08-21T07:45:31;100189.97;;;37.90;37.66
47726;BME280;33483;48.294;16.388;2023-08-21T07:48:01;100191.84;;;38.34;37.06
47726;BME280;33483;48.294;16.388;2023-08-21T07:50:40;100189.97;;;37.92;35.90
47726;BME280;33483;48.294;16.388;2023-08-21T07:53:10;100181.03;;;37.70;38.17
47726;BME280;33483;48.294;16.388;2023-08-21T07:55:37;100179.31;;;38.15;36.97
47726;BME280;33483;48.294;16.388;2023-08-21T07:58:04;100186.69;;;38.26;37.40
47726;BME280;33483;48.294;16.388;2023-08-21T08:00:32;100187.03;;;38.60;35.73
47726;BME280;33483;48.294;16.388;2023-08-21T08:03:00;100195.97;;;38.98;36.43
47726;BME280;33483;48.294;16.388;2023-08-21T08:05:27;100193.16;;;39.12;35.39
47726;BME280;33483;48.294;16.388;2023-08-21T08:08:00;100201.59;;;38.76;35.41
47726;BME280;33483;48.294;16.388;2023-08-21T08:10:28;100194.69;;;39.25;34.88
47726;BME280;33483;48.294;16.388;2023-08-21T08:12:55;100187.50;;;39.39;36.03
47726;BME280;33483;48.294;16.388;2023-08-21T08:15:25;100191.41;;;38.65;34.91
47726;BME280;33483;48.294;16.388;2023-08-21T08:17:53;100196.78;;;39.13;35.03
47726;BME280;33483;48.294;16.388;2023-08-21T08:20:29;100191.03;;;39.21;35.85
47726;BME280;33483;48.294;16.388;2023-08-21T08:23:08;100201.34;;;39.50;35.35
47726;BME280;33483;48.294;16.388;2023-08-21T08:25:37;100188.75;;;39.03;35.88
47726;BME280;33483;48.294;16.388;2023-08-21T08:28:05;100189.09;;;39.80;34.97
47726;BME280;33483;48.294;16.388;2023-08-21T08:30:33;100189.06;;;39.70;33.83
47726;BME280;33483;48.294;16.388;2023-08-21T08:33:01;100190.13;;;38.94;34.09
47726;BME280;33483;48.294;16.388;2023-08-21T08:35:39;100184.69;;;39.59;33.92
47726;BME280;33483;48.294;16.388;2023-08-21T08:38:10;100184.84;;;40.37;33.45
47726;BME280;33483;48.294;16.388;2023-08-21T08:40:43;100192.13;;;40.34;32.09
47726;BME280;33483;48.294;16.388;2023-08-21T08:43:11;100190.63;;;40.09;32.30
47726;BME280;33483;48.294;16.388;2023-08-21T08:45:39;100178.28;;;40.16;34.35
47726;BME280;33483;48.294;16.388;2023-08-21T08:48:07;100189.19;;;40.12;33.29
47726;BME280;33483;48.294;16.388;2023-08-21T08:50:37;100189.16;;;40.16;33.56
47726;BME280;33483;48.294;16.388;2023-08-21T08:53:06;100177.56;;;40.68;32.11
47726;BME280;33483;48.294;16.388;2023-08-21T08:55:46;100188.47;;;40.58;32.46
47726;BME280;33483;48.294;16.388;2023-08-21T08:58:13;100192.09;;;40.56;32.09
47726;BME280;33483;48.294;16.388;2023-08-21T09:00:41;100189.16;;;40.02;33.78
47726;BME280;33483;48.294;16.388;2023-08-21T09:03:08;100173.13;;;39.87;33.83
47726;BME280;33483;48.294;16.388;2023-08-21T09:05:39;100187.00;;;40.30;31.84
47726;BME280;33483;48.294;16.388;2023-08-21T09:08:10;100184.09;;;40.77;31.79
47726;BME280;33483;48.294;16.388;2023-08-21T09:10:39;100176.72;;;41.24;30.11
47726;BME280;33483;48.294;16.388;2023-08-21T09:13:13;100181.84;;;41.19;29.19
47726;BME280;33483;48.294;16.388;2023-08-21T09:15:45;100181.09;;;41.23;28.95
47726;BME280;33483;48.294;16.388;2023-08-21T09:18:16;100173.94;;;40.68;29.17
47726;BME280;33483;48.294;16.388;2023-08-21T09:20:44;100174.56;;;41.14;27.59
47726;BME280;33483;48.294;16.388;2023-08-21T09:23:16;100171.59;;;41.36;28.19
47726;BME280;33483;48.294;16.388;2023-08-21T09:25:44;100170.16;;;41.37;27.41
47726;BME280;33483;48.294;16.388;2023-08-21T09:28:14;100170.16;;;41.29;27.58
47726;BME280;33483;48.294;16.388;2023-08-21T09:33:17;100158.69;;;40.57;31.46
47726;BME280;33483;48.294;16.388;2023-08-21T09:35:46;100157.91;;;40.91;28.10
47726;BME280;33483;48.294;16.388;2023-08-21T09:38:13;100163.03;;;40.62;28.60
47726;BME280;33483;48.294;16.388;2023-08-21T09:40:49;100164.44;;;40.87;26.44
47726;BME280;33483;48.294;16.388;2023-08-21T09:43:17;100163.78;;;40.53;26.60
47726;BME280;33483;48.294;16.388;2023-08-21T09:45:45;100152.84;;;40.67;27.72
47726;BME280;33483;48.294;16.388;2023-08-21T09:48:13;100147.06;;;40.15;29.34
47726;BME280;33483;48.294;16.388;2023-08-21T09:50:44;100153.59;;;40.31;29.17
47726;BME280;33483;48.294;16.388;2023-08-21T09:53:13;100144.16;;;40.49;30.18
47726;BME280;33483;48.294;16.388;2023-08-21T09:55:41;100138.31;;;40.59;30.15
47726;BME280;33483;48.294;16.388;2023-08-21T09:58:08;100144.16;;;40.51;27.66
47726;BME280;33483;48.294;16.388;2023-08-21T10:00:39;100136.16;;;40.44;28.31
47726;BME280;33483;48.294;16.388;2023-08-21T10:03:10;100138.34;;;40.37;28.43
47726;BME280;33483;48.294;16.388;2023-08-21T10:05:38;100139.78;;;40.28;28.25
47726;BME280;33483;48.294;16.388;2023-08-21T10:08:07;100128.91;;;40.38;30.75
47726;BME280;33483;48.294;16.388;2023-08-21T10:10:35;100137.63;;;40.14;29.83
47726;BME280;33483;48.294;16.388;2023-08-21T10:13:05;100126.00;;;40.14;28.78
47726;BME280;33483;48.294;16.388;2023-08-21T10:15:34;100121.66;;;40.01;30.39
47726;BME280;33483;48.294;16.388;2023-08-21T10:20:48;100135.44;;;40.01;28.20
47726;BME280;33483;48.294;16.388;2023-08-21T10:23:25;100120.09;;;39.58;29.93
47726;BME280;33483;48.294;16.388;2023-08-21T10:26:05;100119.25;;;39.19;31.79
47726;BME280;33483;48.294;16.388;2023-08-21T10:33:56;100112.41;;;38.63;31.39
47726;BME280;33483;48.294;16.388;2023-08-21T10:42:04;100098.72;;;37.83;32.29
47726;BME280;33483;48.294;16.388;2023-08-21T10:47:31;100096.59;;;37.90;32.03
47726;BME280;33483;48.294;16.388;2023-08-21T10:50:03;100110.53;;;37.40;30.34
47726;BME280;33483;48.294;16.388;2023-08-21T10:52:34;100099.13;;;37.54;33.97
47726;BME280;33483;48.294;16.388;2023-08-21T10:55:04;100100.56;;;37.55;31.44
47726;BME280;33483;48.294;16.388;2023-08-21T10:57:34;100111.19;;;37.34;31.02
47726;BME280;33483;48.294;16.388;2023-08-21T11:00:09;100096.50;;;37.16;32.54
47726;BME280;33483;48.294;16.388;2023-08-21T11:02:38;100105.22;;;36.66;29.61
47726;BME280;33483;48.294;16.388;2023-08-21T11:05:07;100100.00;;;37.06;31.42
47726;BME280;33483;48.294;16.388;2023-08-21T11:07:39;100100.31;;;36.77;31.48
47726;BME280;33483;48.294;16.388;2023-08-21T11:10:07;100097.19;;;36.61;29.55
47726;BME280;33483;48.294;16.388;2023-08-21T11:12:47;100093.69;;;36.70;30.93
47726;BME280;33483;48.294;16.388;2023-08-21T11:15:16;100095.69;;;36.56;31.30
47726;BME280;33483;48.294;16.388;2023-08-21T11:17:54;100086.41;;;36.65;33.08
47726;BME280;33483;48.294;16.388;2023-08-21T11:20:22;100092.13;;;36.59;31.98
47726;BME280;33483;48.294;16.388;2023-08-21T11:22:56;100091.41;;;36.15;30.83
47726;BME280;33483;48.294;16.388;2023-08-21T11:25:23;100082.91;;;36.23;32.20
47726;BME280;33483;48.294;16.388;2023-08-21T11:27:52;100084.56;;;36.36;32.50
47726;BME280;33483;48.294;16.388;2023-08-21T11:30:21;100081.34;;;36.16;33.22
47726;BME280;33483;48.294;16.388;2023-08-21T11:35:34;100082.91;;;36.23;33.23
47726;BME280;33483;48.294;16.388;2023-08-21T11:38:01;100081.38;;;36.20;33.82
47726;BME280;33483;48.294;16.388;2023-08-21T11:40:30;100087.25;;;36.26;32.53
47726;BME280;33483;48.294;16.388;2023-08-21T11:43:04;100068.28;;;36.13;35.73
47726;BME280;33483;48.294;16.388;2023-08-21T11:45:34;100079.78;;;36.09;33.57
47726;BME280;33483;48.294;16.388;2023-08-21T11:48:22;100073.00;;;35.92;34.33
47726;BME280;33483;48.294;16.388;2023-08-21T11:51:26;100069.69;;;36.10;35.16
47726;BME280;33483;48.294;16.388;2023-08-21T11:53:54;100067.44;;;36.04;36.62
47726;BME280;33483;48.294;16.388;2023-08-21T11:56:21;100066.69;;;36.04;34.54
47726;BME280;33483;48.294;16.388;2023-08-21T11:58:55;100060.56;;;35.84;36.73
47726;BME280;33483;48.294;16.388;2023-08-21T12:01:25;100063.13;;;35.64;34.38
47726;BME280;33483;48.294;16.388;2023-08-21T12:03:54;100054.47;;;35.66;34.42
47726;BME280;33483;48.294;16.388;2023-08-21T12:06:23;100052.41;;;35.70;34.32
47726;BME280;33483;48.294;16.388;2023-08-21T12:08:55;100051.91;;;35.84;34.23
47726;BME280;33483;48.294;16.388;2023-08-21T12:11:22;100040.41;;;35.86;34.72
47726;BME280;33483;48.294;16.388;2023-08-21T12:13:50;100046.97;;;35.88;34.95
47726;BME280;33483;48.294;16.388;2023-08-21T12:16:18;100039.38;;;35.30;34.88
47726;BME280;33483;48.294;16.388;2023-08-21T12:19:03;100038.59;;;35.25;34.14
47726;BME280;33483;48.294;16.388;2023-08-21T12:21:31;100037.44;;;35.40;35.15
47726;BME280;33483;48.294;16.388;2023-08-21T12:24:12;100027.66;;;35.57;33.63
47726;BME280;33483;48.294;16.388;2023-08-21T12:26:48;100021.84;;;35.53;33.74
47726;BME280;33483;48.294;16.388;2023-08-21T12:29:23;100029.88;;;35.61;33.66
47726;BME280;33483;48.294;16.388;2023-08-21T12:31:51;100029.34;;;35.70;32.42
47726;BME280;33483;48.294;16.388;2023-08-21T12:34:26;100024.47;;;35.41;32.33
47726;BME280;33483;48.294;16.388;2023-08-21T12:37:18;100026.56;;;35.39;32.35
47726;BME280;33483;48.294;16.388;2023-08-21T12:39:48;100031.09;;;35.48;29.16
47726;BME280;33483;48.294;16.388;2023-08-21T12:42:16;100024.81;;;35.59;30.11
47726;BME280;33483;48.294;16.388;2023-08-21T12:44:51;100023.63;;;35.35;31.52
47726;BME280;33483;48.294;16.388;2023-08-21T12:47:50;100025.44;;;35.16;32.14
47726;BME280;33483;48.294;16.388;2023-08-21T12:50:17;100025.13;;;35.38;32.54
47726;BME280;33483;48.294;16.388;2023-08-21T12:52:46;100022.09;;;35.30;32.15
47726;BME280;33483;48.294;16.388;2023-08-21T12:55:19;100020.63;;;35.29;30.33
47726;BME280;33483;48.294;16.388;2023-08-21T12:57:52;100016.13;;;35.20;31.89
47726;BME280;33483;48.294;16.388;2023-08-21T13:00:19;100017.47;;;35.14;30.39
47726;BME280;33483;48.294;16.388;2023-08-21T13:02:46;100010.38;;;35.20;30.91
47726;BME280;33483;48.294;16.388;2023-08-21T13:05:13;100008.97;;;35.23;30.97
47726;BME280;33483;48.294;16.388;2023-08-21T13:07:41;100013.88;;;35.14;30.36
47726;BME280;33483;48.294;16.388;2023-08-21T13:10:09;100013.16;;;35.15;30.48
47726;BME280;33483;48.294;16.388;2023-08-21T13:12:37;100002.53;;;35.24;32.37